sensor_id;sensor_type;location;lat;lon;timestamp;P1;durP1;ratioP1;P2;durP2;ratioP2
36501;SDS011;25393;46.108;3.390;2022-07-23T00:00:14;11.25;;;8.77;;
36501;SDS011;25393;46.108;3.390;2022-07-23T00:02:41;10.93;;;7.88;;
36501;SDS011;25393;46.108;3.390;2022-07-23T00:05:09;10.93;;;8.02;;
36501;SDS011;25393;46.108;3.390;2022-07-23T00:07:36;10.43;;;7.55;;
36501;SDS011;25393;46.108;3.390;2022-07-23T00:10:03;8.73;;;7.63;;
36501;SDS011;25393;46.108;3.390;2022-07-23T00:12:31;13.15;;;8.07;;
36501;SDS011;25393;46.108;3.390;2022-07-23T00:14:57;10.98;;;7.57;;
36501;SDS011;25393;46.108;3.390;2022-07-23T00:17:24;9.77;;;7.32;;
36501;SDS011;25393;46.108;3.390;2022-07-23T00:19:51;10.48;;;7.93;;
36501;SDS011;25393;46.108;3.390;2022-07-23T00:22:19;8.65;;;7.68;;
36501;SDS011;25393;46.108;3.390;2022-07-23T00:24:45;10.60;;;7.45;;
36501;SDS011;25393;46.108;3.390;2022-07-23T00:27:32;12.13;;;7.90;;
36501;SDS011;25393;46.108;3.390;2022-07-23T00:29:59;15.20;;;8.45;;
36501;SDS011;25393;46.108;3.390;2022-07-23T00:32:25;10.50;;;7.47;;
36501;SDS011;25393;46.108;3.390;2022-07-23T00:35:12;11.30;;;8.25;;
36501;SDS011;25393;46.108;3.390;2022-07-23T00:37:38;10.68;;;7.43;;
36501;SDS011;25393;46.108;3.390;2022-07-23T00:40:05;10.05;;;7.43;;
36501;SDS011;25393;46.108;3.390;2022-07-23T00:42:32;14.35;;;7.50;;
36501;SDS011;25393;46.108;3.390;2022-07-23T00:44:59;14.95;;;8.30;;
36501;SDS011;25393;46.108;3.390;2022-07-23T00:47:26;11.88;;;7.63;;
36501;SDS011;25393;46.108;3.390;2022-07-23T00:49:52;13.05;;;7.22;;
36501;SDS011;25393;46.108;3.390;2022-07-23T00:52:19;9.88;;;7.35;;
36501;SDS011;25393;46.108;3.390;2022-07-23T00:54:46;11.77;;;7.30;;
36501;SDS011;25393;46.108;3.390;2022-07-23T00:57:13;14.02;;;8.50;;
36501;SDS011;25393;46.108;3.390;2022-07-23T00:59:40;12.57;;;7.57;;
36501;SDS011;25393;46.108;3.390;2022-07-23T01:02:07;29.33;;;7.72;;
36501;SDS011;25393;46.108;3.390;2022-07-23T01:04:34;10.55;;;9.10;;
36501;SDS011;25393;46.108;3.390;2022-07-23T01:07:00;13.00;;;7.60;;
36501;SDS011;25393;46.108;3.390;2022-07-23T01:09:28;14.73;;;13.20;;
36501;SDS011;25393;46.108;3.390;2022-07-23T01:11:55;14.85;;;11.27;;
36501;SDS011;25393;46.108;3.390;2022-07-23T01:14:23;12.93;;;8.25;;
36501;SDS011;25393;46.108;3.390;2022-07-23T01:16:49;12.75;;;9.13;;
36501;SDS011;25393;46.108;3.390;2022-07-23T01:19:17;18.58;;;7.40;;
36501;SDS011;25393;46.108;3.390;2022-07-23T01:21:44;8.02;;;6.22;;
36501;SDS011;25393;46.108;3.390;2022-07-23T01:24:16;9.57;;;7.55;;
36501;SDS011;25393;46.108;3.390;2022-07-23T01:26:45;10.63;;;6.45;;
36501;SDS011;25393;46.108;3.390;2022-07-23T01:29:13;10.80;;;9.77;;
36501;SDS011;25393;46.108;3.390;2022-07-23T01:31:40;16.95;;;12.68;;
36501;SDS011;25393;46.108;3.390;2022-07-23T01:34:09;11.55;;;8.27;;
36501;SDS011;25393;46.108;3.390;2022-07-23T01:36:36;13.15;;;7.07;;
36501;SDS011;25393;46.108;3.390;2022-07-23T01:39:03;13.10;;;8.40;;
36501;SDS011;25393;46.108;3.390;2022-07-23T01:41:31;13.15;;;6.32;;
36501;SDS011;25393;46.108;3.390;2022-07-23T01:44:00;19.75;;;6.82;;
36501;SDS011;25393;46.108;3.390;2022-07-23T01:46:27;13.32;;;6.70;;
36501;SDS011;25393;46.108;3.390;2022-07-23T01:48:54;9.23;;;6.68;;
36501;SDS011;25393;46.108;3.390;2022-07-23T01:51:20;9.05;;;5.70;;
36501;SDS011;25393;46.108;3.390;2022-07-23T01:53:47;11.63;;;5.78;;
36501;SDS011;25393;46.108;3.390;2022-07-23T01:56:14;13.30;;;5.88;;
36501;SDS011;25393;46.108;3.390;2022-07-23T01:58:41;11.30;;;5.90;;
36501;SDS011;25393;46.108;3.390;2022-07-23T02:01:08;8.73;;;5.82;;
36501;SDS011;25393;46.108;3.390;2022-07-23T02:03:35;13.85;;;6.13;;
36501;SDS011;25393;46.108;3.390;2022-07-23T02:06:02;9.23;;;6.07;;
36501;SDS011;25393;46.108;3.390;2022-07-23T02:08:28;10.40;;;5.97;;
36501;SDS011;25393;46.108;3.390;2022-07-23T02:10:55;10.43;;;5.32;;
36501;SDS011;25393;46.108;3.390;2022-07-23T02:13:22;8.77;;;5.68;;
36501;SDS011;25393;46.108;3.390;2022-07-23T02:15:48;12.27;;;5.60;;
36501;SDS011;25393;46.108;3.390;2022-07-23T02:18:15;7.85;;;5.65;;
36501;SDS011;25393;46.108;3.390;2022-07-23T02:20:42;9.05;;;5.35;;
36501;SDS011;25393;46.108;3.390;2022-07-23T02:23:08;12.30;;;6.22;;
36501;SDS011;25393;46.108;3.390;2022-07-23T02:25:35;10.50;;;6.53;;
36501;SDS011;25393;46.108;3.390;2022-07-23T02:28:02;11.93;;;6.00;;
36501;SDS011;25393;46.108;3.390;2022-07-23T02:30:29;9.45;;;5.80;;
36501;SDS011;25393;46.108;3.390;2022-07-23T02:32:55;9.25;;;5.82;;
36501;SDS011;25393;46.108;3.390;2022-07-23T02:35:22;12.15;;;6.22;;
36501;SDS011;25393;46.108;3.390;2022-07-23T02:37:49;10.65;;;5.43;;
36501;SDS011;25393;46.108;3.390;2022-07-23T02:40:16;12.13;;;5.70;;
36501;SDS011;25393;46.108;3.390;2022-07-23T02:42:43;9.65;;;5.80;;
36501;SDS011;25393;46.108;3.390;2022-07-23T02:45:10;10.23;;;5.25;;
36501;SDS011;25393;46.108;3.390;2022-07-23T02:47:37;8.98;;;5.30;;
36501;SDS011;25393;46.108;3.390;2022-07-23T02:50:04;9.52;;;5.55;;
36501;SDS011;25393;46.108;3.390;2022-07-23T02:52:31;11.85;;;5.60;;
36501;SDS011;25393;46.108;3.390;2022-07-23T02:54:58;7.25;;;5.80;;
36501;SDS011;25393;46.108;3.390;2022-07-23T02:57:25;11.43;;;7.68;;
36501;SDS011;25393;46.108;3.390;2022-07-23T02:59:51;7.38;;;6.43;;
36501;SDS011;25393;46.108;3.390;2022-07-23T03:02:18;11.93;;;7.22;;
36501;SDS011;25393;46.108;3.390;2022-07-23T03:04:44;10.20;;;5.95;;
36501;SDS011;25393;46.108;3.390;2022-07-23T03:07:11;10.38;;;5.60;;
36501;SDS011;25393;46.108;3.390;2022-07-23T03:09:38;13.45;;;5.68;;
36501;SDS011;25393;46.108;3.390;2022-07-23T03:12:05;8.63;;;5.30;;
36501;SDS011;25393;46.108;3.390;2022-07-23T03:14:39;9.35;;;5.63;;
36501;SDS011;25393;46.108;3.390;2022-07-23T03:17:06;10.60;;;6.03;;
36501;SDS011;25393;46.108;3.390;2022-07-23T03:19:33;9.07;;;5.55;;
36501;SDS011;25393;46.108;3.390;2022-07-23T03:22:00;10.45;;;5.53;;
36501;SDS011;25393;46.108;3.390;2022-07-23T03:24:26;7.22;;;5.25;;
36501;SDS011;25393;46.108;3.390;2022-07-23T03:27:11;9.07;;;5.68;;
36501;SDS011;25393;46.108;3.390;2022-07-23T03:29:39;10.77;;;5.95;;
36501;SDS011;25393;46.108;3.390;2022-07-23T03:32:06;10.30;;;6.40;;
36501;SDS011;25393;46.108;3.390;2022-07-23T03:34:33;9.75;;;5.75;;
36501;SDS011;25393;46.108;3.390;2022-07-23T03:36:59;14.48;;;5.80;;
36501;SDS011;25393;46.108;3.390;2022-07-23T03:39:28;11.88;;;5.65;;
36501;SDS011;25393;46.108;3.390;2022-07-23T03:41:55;10.38;;;6.10;;
36501;SDS011;25393;46.108;3.390;2022-07-23T03:44:22;11.38;;;6.72;;
36501;SDS011;25393;46.108;3.390;2022-07-23T03:46:49;11.20;;;5.75;;
36501;SDS011;25393;46.108;3.390;2022-07-23T03:49:15;7.15;;;5.95;;
36501;SDS011;25393;46.108;3.390;2022-07-23T03:51:42;9.55;;;6.25;;
36501;SDS011;25393;46.108;3.390;2022-07-23T03:54:09;8.88;;;5.88;;
36501;SDS011;25393;46.108;3.390;2022-07-23T03:56:36;18.27;;;6.10;;
36501;SDS011;25393;46.108;3.390;2022-07-23T03:59:03;12.13;;;5.78;;
36501;SDS011;25393;46.108;3.390;2022-07-23T04:01:30;8.82;;;5.72;;
36501;SDS011;25393;46.108;3.390;2022-07-23T04:03:57;10.93;;;6.00;;
36501;SDS011;25393;46.108;3.390;2022-07-23T04:06:24;11.82;;;6.07;;
36501;SDS011;25393;46.108;3.390;2022-07-23T04:08:51;8.38;;;5.90;;
36501;SDS011;25393;46.108;3.390;2022-07-23T04:11:17;11.10;;;6.30;;
36501;SDS011;25393;46.108;3.390;2022-07-23T04:13:44;9.05;;;5.90;;
36501;SDS011;25393;46.108;3.390;2022-07-23T04:16:11;5.90;;;5.20;;
36501;SDS011;25393;46.108;3.390;2022-07-23T04:18:38;6.60;;;5.35;;
36501;SDS011;25393;46.108;3.390;2022-07-23T04:21:04;10.23;;;6.18;;
36501;SDS011;25393;46.108;3.390;2022-07-23T04:23:31;7.68;;;5.45;;
36501;SDS011;25393;46.108;3.390;2022-07-23T04:25:58;10.60;;;5.35;;
36501;SDS011;25393;46.108;3.390;2022-07-23T04:28:24;10.65;;;5.45;;
36501;SDS011;25393;46.108;3.390;2022-07-23T04:30:51;5.47;;;4.97;;
36501;SDS011;25393;46.108;3.390;2022-07-23T04:33:18;5.82;;;5.22;;
36501;SDS011;25393;46.108;3.390;2022-07-23T04:35:45;7.13;;;5.10;;
36501;SDS011;25393;46.108;3.390;2022-07-23T04:38:12;6.57;;;5.07;;
36501;SDS011;25393;46.108;3.390;2022-07-23T04:40:38;7.85;;;7.15;;
36501;SDS011;25393;46.108;3.390;2022-07-23T04:43:05;6.80;;;5.82;;
36501;SDS011;25393;46.108;3.390;2022-07-23T04:45:32;10.45;;;5.15;;
36501;SDS011;25393;46.108;3.390;2022-07-23T04:47:58;5.72;;;5.18;;
36501;SDS011;25393;46.108;3.390;2022-07-23T04:50:25;5.57;;;4.90;;
36501;SDS011;25393;46.108;3.390;2022-07-23T04:52:52;7.18;;;5.05;;
36501;SDS011;25393;46.108;3.390;2022-07-23T04:55:18;5.90;;;5.00;;
36501;SDS011;25393;46.108;3.390;2022-07-23T04:57:45;8.82;;;5.03;;
36501;SDS011;25393;46.108;3.390;2022-07-23T05:00:12;17.40;;;5.65;;
36501;SDS011;25393;46.108;3.390;2022-07-23T05:02:39;9.15;;;4.70;;
36501;SDS011;25393;46.108;3.390;2022-07-23T05:05:05;11.20;;;5.28;;
36501;SDS011;25393;46.108;3.390;2022-07-23T05:07:32;10.18;;;4.97;;
36501;SDS011;25393;46.108;3.390;2022-07-23T05:09:59;6.35;;;5.38;;
36501;SDS011;25393;46.108;3.390;2022-07-23T05:12:25;7.30;;;5.30;;
36501;SDS011;25393;46.108;3.390;2022-07-23T05:14:52;12.55;;;5.82;;
36501;SDS011;25393;46.108;3.390;2022-07-23T05:17:19;8.57;;;5.93;;
36501;SDS011;25393;46.108;3.390;2022-07-23T05:19:45;9.07;;;5.63;;
36501;SDS011;25393;46.108;3.390;2022-07-23T05:22:12;7.82;;;5.75;;
36501;SDS011;25393;46.108;3.390;2022-07-23T05:24:38;6.18;;;5.60;;
36501;SDS011;25393;46.108;3.390;2022-07-23T05:27:05;11.57;;;5.90;;
36501;SDS011;25393;46.108;3.390;2022-07-23T05:29:32;7.78;;;6.20;;
36501;SDS011;25393;46.108;3.390;2022-07-23T05:31:58;8.23;;;6.00;;
36501;SDS011;25393;46.108;3.390;2022-07-23T05:34:25;6.53;;;5.75;;
36501;SDS011;25393;46.108;3.390;2022-07-23T05:36:52;7.65;;;5.85;;
36501;SDS011;25393;46.108;3.390;2022-07-23T05:39:19;6.78;;;6.05;;
36501;SDS011;25393;46.108;3.390;2022-07-23T05:41:46;7.95;;;5.93;;
36501;SDS011;25393;46.108;3.390;2022-07-23T05:44:13;7.45;;;6.00;;
36501;SDS011;25393;46.108;3.390;2022-07-23T05:46:39;11.20;;;6.25;;
36501;SDS011;25393;46.108;3.390;2022-07-23T05:49:06;13.43;;;6.68;;
36501;SDS011;25393;46.108;3.390;2022-07-23T05:51:33;8.43;;;6.07;;
36501;SDS011;25393;46.108;3.390;2022-07-23T05:53:59;10.50;;;5.82;;
36501;SDS011;25393;46.108;3.390;2022-07-23T05:56:26;7.15;;;6.05;;
36501;SDS011;25393;46.108;3.390;2022-07-23T05:58:53;6.80;;;5.43;;
36501;SDS011;25393;46.108;3.390;2022-07-23T06:01:19;11.00;;;6.45;;
36501;SDS011;25393;46.108;3.390;2022-07-23T06:03:46;7.15;;;5.50;;
36501;SDS011;25393;46.108;3.390;2022-07-23T06:06:13;11.70;;;7.97;;
36501;SDS011;25393;46.108;3.390;2022-07-23T06:08:40;10.77;;;6.25;;
36501;SDS011;25393;46.108;3.390;2022-07-23T06:11:07;8.40;;;6.15;;
36501;SDS011;25393;46.108;3.390;2022-07-23T06:13:34;8.82;;;5.45;;
36501;SDS011;25393;46.108;3.390;2022-07-23T06:16:01;8.52;;;5.90;;
36501;SDS011;25393;46.108;3.390;2022-07-23T06:18:27;7.22;;;6.15;;
36501;SDS011;25393;46.108;3.390;2022-07-23T06:20:54;9.60;;;6.18;;
36501;SDS011;25393;46.108;3.390;2022-07-23T06:23:25;10.25;;;6.18;;
36501;SDS011;25393;46.108;3.390;2022-07-23T06:25:52;7.75;;;5.90;;
36501;SDS011;25393;46.108;3.390;2022-07-23T06:28:19;7.38;;;5.93;;
36501;SDS011;25393;46.108;3.390;2022-07-23T06:30:46;7.15;;;5.53;;
36501;SDS011;25393;46.108;3.390;2022-07-23T06:33:13;9.93;;;6.03;;
36501;SDS011;25393;46.108;3.390;2022-07-23T06:35:40;12.75;;;6.72;;
36501;SDS011;25393;46.108;3.390;2022-07-23T06:38:07;8.85;;;5.88;;
36501;SDS011;25393;46.108;3.390;2022-07-23T06:40:34;7.70;;;6.35;;
36501;SDS011;25393;46.108;3.390;2022-07-23T06:43:00;10.25;;;5.70;;
36501;SDS011;25393;46.108;3.390;2022-07-23T06:45:28;6.60;;;5.93;;
36501;SDS011;25393;46.108;3.390;2022-07-23T06:47:55;11.30;;;6.30;;
36501;SDS011;25393;46.108;3.390;2022-07-23T06:50:22;6.95;;;6.25;;
36501;SDS011;25393;46.108;3.390;2022-07-23T06:52:49;12.15;;;6.03;;
36501;SDS011;25393;46.108;3.390;2022-07-23T06:55:15;14.27;;;6.13;;
36501;SDS011;25393;46.108;3.390;2022-07-23T06:57:42;9.75;;;6.70;;
36501;SDS011;25393;46.108;3.390;2022-07-23T07:00:09;7.57;;;6.88;;
36501;SDS011;25393;46.108;3.390;2022-07-23T07:02:36;13.05;;;6.53;;
36501;SDS011;25393;46.108;3.390;2022-07-23T07:05:04;8.85;;;6.30;;
36501;SDS011;25393;46.108;3.390;2022-07-23T07:07:32;7.07;;;6.20;;
36501;SDS011;25393;46.108;3.390;2022-07-23T07:09:59;7.82;;;6.70;;
36501;SDS011;25393;46.108;3.390;2022-07-23T07:12:26;12.25;;;7.05;;
36501;SDS011;25393;46.108;3.390;2022-07-23T07:14:53;9.82;;;7.63;;
36501;SDS011;25393;46.108;3.390;2022-07-23T07:17:19;12.90;;;7.43;;
36501;SDS011;25393;46.108;3.390;2022-07-23T07:19:46;6.95;;;5.95;;
36501;SDS011;25393;46.108;3.390;2022-07-23T07:22:13;9.27;;;5.90;;
36501;SDS011;25393;46.108;3.390;2022-07-23T07:24:40;9.07;;;6.45;;
36501;SDS011;25393;46.108;3.390;2022-07-23T07:27:11;6.88;;;6.18;;
36501;SDS011;25393;46.108;3.390;2022-07-23T07:29:38;11.20;;;6.90;;
36501;SDS011;25393;46.108;3.390;2022-07-23T07:32:05;8.20;;;6.05;;
36501;SDS011;25393;46.108;3.390;2022-07-23T07:34:31;8.32;;;6.18;;
36501;SDS011;25393;46.108;3.390;2022-07-23T07:36:59;8.73;;;6.22;;
36501;SDS011;25393;46.108;3.390;2022-07-23T07:39:25;8.50;;;6.50;;
36501;SDS011;25393;46.108;3.390;2022-07-23T07:41:52;7.88;;;6.68;;
36501;SDS011;25393;46.108;3.390;2022-07-23T07:44:18;7.28;;;5.97;;
36501;SDS011;25393;46.108;3.390;2022-07-23T07:46:45;9.77;;;6.43;;
36501;SDS011;25393;46.108;3.390;2022-07-23T07:49:12;8.40;;;6.18;;
36501;SDS011;25393;46.108;3.390;2022-07-23T07:51:41;9.35;;;6.43;;
36501;SDS011;25393;46.108;3.390;2022-07-23T07:54:10;11.13;;;6.00;;
36501;SDS011;25393;46.108;3.390;2022-07-23T07:56:38;7.13;;;6.10;;
36501;SDS011;25393;46.108;3.390;2022-07-23T07:59:06;11.07;;;6.47;;
36501;SDS011;25393;46.108;3.390;2022-07-23T08:01:33;6.75;;;6.07;;
36501;SDS011;25393;46.108;3.390;2022-07-23T08:03:59;9.90;;;6.25;;
36501;SDS011;25393;46.108;3.390;2022-07-23T08:06:26;14.45;;;6.60;;
36501;SDS011;25393;46.108;3.390;2022-07-23T08:08:53;6.88;;;6.20;;
36501;SDS011;25393;46.108;3.390;2022-07-23T08:11:20;14.20;;;6.80;;
36501;SDS011;25393;46.108;3.390;2022-07-23T08:13:47;11.70;;;6.82;;
36501;SDS011;25393;46.108;3.390;2022-07-23T08:16:17;10.55;;;6.05;;
36501;SDS011;25393;46.108;3.390;2022-07-23T08:18:44;8.50;;;6.13;;
36501;SDS011;25393;46.108;3.390;2022-07-23T08:21:11;9.40;;;6.03;;
36501;SDS011;25393;46.108;3.390;2022-07-23T08:23:38;7.28;;;6.15;;
36501;SDS011;25393;46.108;3.390;2022-07-23T08:26:05;7.57;;;6.80;;
36501;SDS011;25393;46.108;3.390;2022-07-23T08:28:34;8.27;;;6.70;;
36501;SDS011;25393;46.108;3.390;2022-07-23T08:31:01;11.07;;;6.57;;
36501;SDS011;25393;46.108;3.390;2022-07-23T08:33:28;12.23;;;7.45;;
36501;SDS011;25393;46.108;3.390;2022-07-23T08:35:59;10.00;;;7.07;;
36501;SDS011;25393;46.108;3.390;2022-07-23T08:38:29;8.10;;;6.78;;
36501;SDS011;25393;46.108;3.390;2022-07-23T08:40:56;10.95;;;6.47;;
36501;SDS011;25393;46.108;3.390;2022-07-23T08:43:27;13.55;;;6.85;;
36501;SDS011;25393;46.108;3.390;2022-07-23T08:45:56;11.15;;;7.50;;
36501;SDS011;25393;46.108;3.390;2022-07-23T08:48:30;8.32;;;7.50;;
36501;SDS011;25393;46.108;3.390;2022-07-23T08:51:02;10.48;;;7.13;;
36501;SDS011;25393;46.108;3.390;2022-07-23T08:53:30;8.00;;;7.10;;
36501;SDS011;25393;46.108;3.390;2022-07-23T08:55:59;7.43;;;6.68;;
36501;SDS011;25393;46.108;3.390;2022-07-23T08:58:30;11.68;;;7.20;;
36501;SDS011;25393;46.108;3.390;2022-07-23T09:00:57;9.68;;;7.07;;
36501;SDS011;25393;46.108;3.390;2022-07-23T09:03:28;7.45;;;6.47;;
36501;SDS011;25393;46.108;3.390;2022-07-23T09:05:56;8.82;;;7.15;;
36501;SDS011;25393;46.108;3.390;2022-07-23T09:08:26;13.43;;;7.05;;
36501;SDS011;25393;46.108;3.390;2022-07-23T09:11:02;9.15;;;6.38;;
36501;SDS011;25393;46.108;3.390;2022-07-23T09:16:08;8.15;;;7.35;;
36501;SDS011;25393;46.108;3.390;2022-07-23T09:18:49;9.05;;;6.95;;
36501;SDS011;25393;46.108;3.390;2022-07-23T09:21:22;6.90;;;6.15;;
36501;SDS011;25393;46.108;3.390;2022-07-23T09:23:50;9.55;;;7.00;;
36501;SDS011;25393;46.108;3.390;2022-07-23T09:26:20;11.20;;;7.20;;
36501;SDS011;25393;46.108;3.390;2022-07-23T09:28:54;10.93;;;6.90;;
36501;SDS011;25393;46.108;3.390;2022-07-23T09:31:27;8.98;;;6.88;;
36501;SDS011;25393;46.108;3.390;2022-07-23T09:34:12;9.48;;;7.10;;
36501;SDS011;25393;46.108;3.390;2022-07-23T09:36:39;10.60;;;6.28;;
36501;SDS011;25393;46.108;3.390;2022-07-23T09:39:06;12.10;;;8.27;;
36501;SDS011;25393;46.108;3.390;2022-07-23T09:41:38;8.15;;;7.22;;
36501;SDS011;25393;46.108;3.390;2022-07-23T09:44:15;9.65;;;7.80;;
36501;SDS011;25393;46.108;3.390;2022-07-23T09:46:44;14.35;;;12.80;;
36501;SDS011;25393;46.108;3.390;2022-07-23T09:49:14;11.32;;;8.57;;
36501;SDS011;25393;46.108;3.390;2022-07-23T09:51:59;8.25;;;7.22;;
36501;SDS011;25393;46.108;3.390;2022-07-23T09:54:29;10.20;;;7.68;;
36501;SDS011;25393;46.108;3.390;2022-07-23T09:56:58;10.23;;;6.85;;
36501;SDS011;25393;46.108;3.390;2022-07-23T09:59:41;9.13;;;6.90;;
36501;SDS011;25393;46.108;3.390;2022-07-23T10:02:10;10.18;;;7.65;;
36501;SDS011;25393;46.108;3.390;2022-07-23T10:04:41;10.25;;;7.65;;
36501;SDS011;25393;46.108;3.390;2022-07-23T10:07:10;14.73;;;7.20;;
36501;SDS011;25393;46.108;3.390;2022-07-23T10:09:38;14.63;;;7.13;;
36501;SDS011;25393;46.108;3.390;2022-07-23T10:12:11;10.15;;;7.25;;
36501;SDS011;25393;46.108;3.390;2022-07-23T10:15:04;11.65;;;6.82;;
36501;SDS011;25393;46.108;3.390;2022-07-23T10:17:32;9.10;;;7.57;;
36501;SDS011;25393;46.108;3.390;2022-07-23T10:19:59;10.90;;;7.05;;
36501;SDS011;25393;46.108;3.390;2022-07-23T10:22:51;15.25;;;7.60;;
36501;SDS011;25393;46.108;3.390;2022-07-23T10:25:46;11.02;;;7.38;;
36501;SDS011;25393;46.108;3.390;2022-07-23T10:31:12;9.35;;;6.75;;
36501;SDS011;25393;46.108;3.390;2022-07-23T10:36:48;13.93;;;7.53;;
36501;SDS011;25393;46.108;3.390;2022-07-23T10:39:22;11.77;;;7.35;;
36501;SDS011;25393;46.108;3.390;2022-07-23T10:41:52;10.07;;;8.73;;
36501;SDS011;25393;46.108;3.390;2022-07-23T10:44:38;10.50;;;8.20;;
36501;SDS011;25393;46.108;3.390;2022-07-23T10:47:07;7.43;;;6.55;;
36501;SDS011;25393;46.108;3.390;2022-07-23T10:49:52;6.78;;;5.88;;
36501;SDS011;25393;46.108;3.390;2022-07-23T10:54:46;7.35;;;6.18;;
36501;SDS011;25393;46.108;3.390;2022-07-23T10:57:18;6.50;;;5.88;;
36501;SDS011;25393;46.108;3.390;2022-07-23T11:02:29;12.77;;;6.03;;
36501;SDS011;25393;46.108;3.390;2022-07-23T11:07:35;8.25;;;6.15;;
36501;SDS011;25393;46.108;3.390;2022-07-23T11:10:40;9.88;;;6.15;;
36501;SDS011;25393;46.108;3.390;2022-07-23T11:24:05;7.20;;;6.07;;
36501;SDS011;25393;46.108;3.390;2022-07-23T11:26:45;9.13;;;6.80;;
36501;SDS011;25393;46.108;3.390;2022-07-23T11:31:58;8.15;;;5.95;;
36501;SDS011;25393;46.108;3.390;2022-07-23T11:34:34;8.43;;;6.60;;
36501;SDS011;25393;46.108;3.390;2022-07-23T11:37:10;9.10;;;6.55;;
36501;SDS011;25393;46.108;3.390;2022-07-23T11:39:55;14.18;;;7.10;;
36501;SDS011;25393;46.108;3.390;2022-07-23T11:42:24;12.90;;;6.20;;
36501;SDS011;25393;46.108;3.390;2022-07-23T11:44:57;9.73;;;6.30;;
36501;SDS011;25393;46.108;3.390;2022-07-23T11:47:24;6.63;;;5.68;;
36501;SDS011;25393;46.108;3.390;2022-07-23T11:49:53;8.07;;;6.80;;
36501;SDS011;25393;46.108;3.390;2022-07-23T11:52:29;8.73;;;6.43;;
36501;SDS011;25393;46.108;3.390;2022-07-23T11:57:25;8.82;;;6.10;;
36501;SDS011;25393;46.108;3.390;2022-07-23T11:59:55;9.75;;;6.10;;
36501;SDS011;25393;46.108;3.390;2022-07-23T12:02:24;6.53;;;5.93;;
36501;SDS011;25393;46.108;3.390;2022-07-23T12:04:53;6.88;;;6.03;;
36501;SDS011;25393;46.108;3.390;2022-07-23T12:07:36;7.03;;;6.20;;
36501;SDS011;25393;46.108;3.390;2022-07-23T12:10:13;8.85;;;5.78;;
36501;SDS011;25393;46.108;3.390;2022-07-23T12:12:46;10.52;;;5.95;;
36501;SDS011;25393;46.108;3.390;2022-07-23T12:15:19;6.47;;;5.50;;
36501;SDS011;25393;46.108;3.390;2022-07-23T12:17:49;12.55;;;6.05;;
36501;SDS011;25393;46.108;3.390;2022-07-23T12:20:23;6.53;;;5.93;;
36501;SDS011;25393;46.108;3.390;2022-07-23T12:22:52;6.22;;;5.70;;
36501;SDS011;25393;46.108;3.390;2022-07-23T12:25:24;7.97;;;6.10;;
36501;SDS011;25393;46.108;3.390;2022-07-23T12:30:45;6.88;;;5.82;;
36501;SDS011;25393;46.108;3.390;2022-07-23T12:33:27;7.25;;;6.65;;
36501;SDS011;25393;46.108;3.390;2022-07-23T12:36:07;11.07;;;7.25;;
36501;SDS011;25393;46.108;3.390;2022-07-23T12:41:17;7.32;;;6.63;;
36501;SDS011;25393;46.108;3.390;2022-07-23T12:43:45;7.30;;;5.60;;
36501;SDS011;25393;46.108;3.390;2022-07-23T12:46:21;10.45;;;6.22;;
36501;SDS011;25393;46.108;3.390;2022-07-23T12:53:51;9.75;;;8.77;;
36501;SDS011;25393;46.108;3.390;2022-07-23T12:56:28;7.55;;;6.65;;
36501;SDS011;25393;46.108;3.390;2022-07-23T12:59:09;7.80;;;6.68;;
36501;SDS011;25393;46.108;3.390;2022-07-23T13:01:38;8.88;;;6.95;;
36501;SDS011;25393;46.108;3.390;2022-07-23T13:06:43;7.40;;;6.03;;
36501;SDS011;25393;46.108;3.390;2022-07-23T13:11:51;8.73;;;6.93;;
36501;SDS011;25393;46.108;3.390;2022-07-23T13:14:22;9.48;;;6.20;;
36501;SDS011;25393;46.108;3.390;2022-07-23T13:16:50;7.68;;;6.40;;
36501;SDS011;25393;46.108;3.390;2022-07-23T13:19:18;8.05;;;6.00;;
36501;SDS011;25393;46.108;3.390;2022-07-23T13:21:49;5.85;;;5.15;;
36501;SDS011;25393;46.108;3.390;2022-07-23T13:24:16;7.65;;;5.03;;
36501;SDS011;25393;46.108;3.390;2022-07-23T13:26:43;6.60;;;5.95;;
36501;SDS011;25393;46.108;3.390;2022-07-23T13:29:13;6.90;;;5.75;;
36501;SDS011;25393;46.108;3.390;2022-07-23T13:31:42;8.85;;;6.25;;
36501;SDS011;25393;46.108;3.390;2022-07-23T13:34:09;8.68;;;5.80;;
36501;SDS011;25393;46.108;3.390;2022-07-23T13:36:36;6.47;;;5.88;;
36501;SDS011;25393;46.108;3.390;2022-07-23T13:39:03;8.40;;;5.72;;
36501;SDS011;25393;46.108;3.390;2022-07-23T13:41:33;6.93;;;4.88;;
36501;SDS011;25393;46.108;3.390;2022-07-23T13:44:01;7.00;;;5.13;;
36501;SDS011;25393;46.108;3.390;2022-07-23T13:46:29;5.95;;;4.88;;
36501;SDS011;25393;46.108;3.390;2022-07-23T13:48:56;6.57;;;4.88;;
36501;SDS011;25393;46.108;3.390;2022-07-23T13:51:23;6.95;;;5.53;;
36501;SDS011;25393;46.108;3.390;2022-07-23T13:53:51;7.20;;;5.38;;
36501;SDS011;25393;46.108;3.390;2022-07-23T13:56:18;6.13;;;5.53;;
36501;SDS011;25393;46.108;3.390;2022-07-23T13:58:47;10.70;;;5.30;;
36501;SDS011;25393;46.108;3.390;2022-07-23T14:01:14;6.00;;;5.05;;
36501;SDS011;25393;46.108;3.390;2022-07-23T14:03:43;6.70;;;5.93;;
36501;SDS011;25393;46.108;3.390;2022-07-23T14:06:11;5.78;;;5.30;;
36501;SDS011;25393;46.108;3.390;2022-07-23T14:08:44;9.10;;;8.02;;
36501;SDS011;25393;46.108;3.390;2022-07-23T14:11:13;5.93;;;5.43;;
36501;SDS011;25393;46.108;3.390;2022-07-23T14:13:44;5.30;;;4.45;;
36501;SDS011;25393;46.108;3.390;2022-07-23T14:16:14;5.68;;;5.20;;
36501;SDS011;25393;46.108;3.390;2022-07-23T14:18:41;5.85;;;5.35;;
36501;SDS011;25393;46.108;3.390;2022-07-23T14:21:27;7.88;;;5.50;;
36501;SDS011;25393;46.108;3.390;2022-07-23T14:23:53;6.20;;;5.32;;
36501;SDS011;25393;46.108;3.390;2022-07-23T14:26:20;6.13;;;5.53;;
36501;SDS011;25393;46.108;3.390;2022-07-23T14:28:47;7.22;;;5.65;;
36501;SDS011;25393;46.108;3.390;2022-07-23T14:31:14;7.03;;;6.00;;
36501;SDS011;25393;46.108;3.390;2022-07-23T14:33:47;6.50;;;5.38;;
36501;SDS011;25393;46.108;3.390;2022-07-23T14:36:14;7.07;;;5.63;;
36501;SDS011;25393;46.108;3.390;2022-07-23T14:38:41;10.20;;;6.18;;
36501;SDS011;25393;46.108;3.390;2022-07-23T14:41:08;6.53;;;5.22;;
36501;SDS011;25393;46.108;3.390;2022-07-23T14:43:36;7.25;;;6.50;;
36501;SDS011;25393;46.108;3.390;2022-07-23T14:46:04;6.78;;;6.18;;
36501;SDS011;25393;46.108;3.390;2022-07-23T14:48:31;6.47;;;5.55;;
36501;SDS011;25393;46.108;3.390;2022-07-23T14:50:58;6.97;;;6.22;;
36501;SDS011;25393;46.108;3.390;2022-07-23T14:53:25;6.90;;;5.57;;
36501;SDS011;25393;46.108;3.390;2022-07-23T14:55:53;7.18;;;5.80;;
36501;SDS011;25393;46.108;3.390;2022-07-23T14:58:21;7.72;;;6.78;;
36501;SDS011;25393;46.108;3.390;2022-07-23T15:00:47;6.47;;;5.28;;
36501;SDS011;25393;46.108;3.390;2022-07-23T15:03:14;8.07;;;5.68;;
36501;SDS011;25393;46.108;3.390;2022-07-23T15:05:41;5.93;;;5.32;;
36501;SDS011;25393;46.108;3.390;2022-07-23T15:08:08;7.80;;;5.65;;
36501;SDS011;25393;46.108;3.390;2022-07-23T15:10:35;8.90;;;5.28;;
36501;SDS011;25393;46.108;3.390;2022-07-23T15:13:03;8.85;;;5.15;;
36501;SDS011;25393;46.108;3.390;2022-07-23T15:15:30;5.28;;;4.78;;
36501;SDS011;25393;46.108;3.390;2022-07-23T15:17:56;5.70;;;5.07;;
36501;SDS011;25393;46.108;3.390;2022-07-23T15:20:23;7.75;;;7.05;;
36501;SDS011;25393;46.108;3.390;2022-07-23T15:23:03;6.97;;;6.15;;
36501;SDS011;25393;46.108;3.390;2022-07-23T15:25:33;7.13;;;5.45;;
36501;SDS011;25393;46.108;3.390;2022-07-23T15:28:00;6.15;;;5.57;;
36501;SDS011;25393;46.108;3.390;2022-07-23T15:30:27;8.02;;;5.70;;
36501;SDS011;25393;46.108;3.390;2022-07-23T15:32:54;9.18;;;6.00;;
36501;SDS011;25393;46.108;3.390;2022-07-23T15:35:21;8.20;;;5.88;;
36501;SDS011;25393;46.108;3.390;2022-07-23T15:37:48;8.32;;;5.93;;
36501;SDS011;25393;46.108;3.390;2022-07-23T15:40:15;7.15;;;5.70;;